Time;durP1;ratioP1;P1;durP2;ratioP2;P2;SDS_P1;SDS_P2;PMS_P1;PMS_P2;Temp;Humidity;BMP_temperature;BMP_pressure;BME280_temperature;BME280_humidity;BME280_pressure;Samples;Min_cycle;Max_cycle;Signal;HPM_P1;HPM_P2
2023/03/26 00:02:55;;;;;;;2.17;0.90;;;;;;;8.24;82.46;98871.59;10507652;28;20440;-73
2023/03/26 00:07:57;;;;;;;2.38;1.13;;;;;;;8.23;81.22;98873.34;10503510;28;20055;-73
2023/03/26 00:12:59;;;;;;;2.45;0.90;;;;;;;8.27;81.74;98874.06;10501900;28;20049;-73
2023/03/26 00:18:01;;;;;;;2.67;0.70;;;;;;;8.33;79.46;98885.16;10500957;28;20048;-73
2023/03/26 00:23:03;;;;;;;2.92;0.80;;;;;;;8.31;80.35;98899.22;10500997;28;20040;-73
2023/03/26 00:28:06;;;;;;;3.28;1.00;;;;;;;8.37;80.15;98898.13;10516889;28;20070;-73
2023/03/26 00:33:10;;;;;;;4.07;0.77;;;;;;;8.37;80.82;98914.72;10498893;28;20048;-73
2023/03/26 00:38:13;;;;;;;5.05;1.25;;;;;;;8.42;79.36;98904.06;10498909;28;20127;-73
2023/03/26 00:43:19;;;;;;;2.60;0.75;;;;;;;8.42;79.96;98904.91;10499473;28;20044;-74
2023/03/26 00:48:21;;;;;;;2.93;0.60;;;;;;;8.19;80.98;98907.56;10517335;28;20044;-74
2023/03/26 00:53:44;;;;;;;2.80;0.65;;;;;;;8.09;81.41;98900.06;10499254;28;20382;-73
2023/03/26 00:58:48;;;;;;;2.65;0.80;;;;;;;8.17;81.00;98885.84;10497456;28;20128;-74
2023/03/26 01:03:57;;;;;;;4.05;0.75;;;;;;;8.02;82.81;98880.31;10514261;28;20093;-74
2023/03/26 01:09:33;;;;;;;2.92;0.60;;;;;;;8.02;83.82;98882.94;10500175;28;20068;-74
2023/03/26 01:14:35;;;;;;;2.83;1.02;;;;;;;8.23;81.29;98870.72;10500886;28;20051;-74
2023/03/26 01:20:11;;;;;;;1.95;0.70;;;;;;;8.35;80.96;98874.59;10497178;28;20048;-74
2023/03/26 01:25:13;;;;;;;1.80;0.60;;;;;;;8.25;81.81;98868.91;10498064;28;20043;-74
2023/03/26 01:30:32;;;;;;;2.60;0.65;;;;;;;8.06;82.71;98876.66;10497608;28;20101;-74
2023/03/26 01:35:37;;;;;;;3.35;0.70;;;;;;;8.10;81.45;98890.44;10498677;28;20433;-74
2023/03/26 01:40:57;;;;;;;0.65;0.40;;;;;;;8.03;81.81;98883.78;10499260;28;20390;-74
2023/03/26 01:46:02;;;;;;;2.10;0.65;;;;;;;8.06;80.92;98894.97;10498264;28;20052;-74
2023/03/26 01:51:05;;;;;;;1.67;0.52;;;;;;;8.03;80.62;98884.63;10514291;28;20079;-73
2023/03/26 01:56:09;;;;;;;2.67;0.60;;;;;;;7.86;81.64;98889.66;10497181;28;20139;-73
2023/03/26 02:01:18;;;;;;;2.47;0.60;;;;;;;7.81;81.93;98879.38;10496233;28;20052;-73
2023/03/26 02:06:41;;;;;;;1.42;0.50;;;;;;;7.77;82.73;98874.31;10513118;28;20045;-73
2023/03/26 02:11:44;;;;;;;2.20;0.50;;;;;;;7.80;83.14;98884.69;10499853;28;20456;-74
2023/03/26 02:16:46;;;;;;;1.77;0.50;;;;;;;7.66;84.55;98864.28;10499021;28;20040;-74
2023/03/26 02:21:50;;;;;;;1.10;0.38;;;;;;;7.65;85.53;98874.78;10497022;28;20044;-74
2023/03/26 02:26:52;;;;;;;2.20;0.65;;;;;;;7.68;85.67;98880.75;10495535;28;20383;-73
2023/03/26 02:31:55;;;;;;;2.90;0.80;;;;;;;7.70;86.17;98881.56;10512338;28;20444;-73
2023/03/26 02:36:57;;;;;;;2.70;0.50;;;;;;;7.71;86.28;98882.44;10504180;28;20124;-73
2023/03/26 02:42:00;;;;;;;2.50;0.80;;;;;;;7.69;87.97;98879.84;10520205;28;20040;-75
2023/03/26 02:47:03;;;;;;;2.55;0.60;;;;;;;7.59;89.62;98888.97;10502265;28;20041;-73
2023/03/26 02:52:17;;;;;;;2.90;0.90;;;;;;;7.47;90.99;98885.03;10505217;28;20490;-75
2023/03/26 02:57:23;;;;;;;2.60;0.57;;;;;;;7.48;91.05;98885.88;10520693;28;20036;-73
2023/03/26 03:02:37;;;;;;;1.60;0.60;;;;;;;7.41;91.26;98887.03;10503822;28;20567;-73
2023/03/26 03:07:58;;;;;;;3.15;1.08;;;;;;;7.54;89.91;98881.28;10504981;28;20048;-74
2023/03/26 03:13:04;;;;;;;3.33;0.70;;;;;;;7.54;89.39;98883.06;10501806;28;20062;-73
2023/03/26 03:18:06;;;;;;;1.73;0.50;;;;;;;7.52;91.21;98875.25;10502265;28;20150;-73
2023/03/26 03:23:08;;;;;;;1.58;0.40;;;;;;;7.38;94.15;98880.16;10503142;28;20045;-73
2023/03/26 03:28:12;;;;;;;3.38;0.73;;;;;;;7.45;94.51;98880.78;10519260;28;20048;-73
2023/03/26 03:33:14;;;;;;;1.92;0.77;;;;;;;7.42;95.07;98881.75;10518195;28;20044;-73
2023/03/26 03:38:16;;;;;;;3.17;0.75;;;;;;;7.34;95.76;98874.19;10502340;28;20045;-74
2023/03/26 03:43:21;;;;;;;1.33;0.60;;;;;;;7.26;96.58;98876.25;10518829;28;20032;-73
2023/03/26 03:48:38;;;;;;;3.80;1.13;;;;;;;7.24;96.29;98877.19;10500723;28;20056;-74
2023/03/26 03:53:42;;;;;;;1.85;0.60;;;;;;;7.28;96.11;98878.81;10500490;28;20135;-74
2023/03/26 03:58:45;;;;;;;5.70;1.42;;;;;;;7.27;96.22;98869.25;10517039;28;20064;-73
2023/03/26 04:03:52;;;;;;;2.10;0.60;;;;;;;7.19;97.09;98856.47;10502156;28;20444;-73
2023/03/26 04:08:58;;;;;;;1.87;0.70;;;;;;;7.17;96.98;98860.03;10516888;22;20070;-75
2023/03/26 04:14:01;;;;;;;1.95;0.50;;;;;;;7.18;97.09;98872.22;10518730;28;20051;-76
2023/03/26 04:19:22;;;;;;;2.17;0.70;;;;;;;7.20;95.99;98860.78;10505193;28;20052;-76
2023/03/26 04:24:23;;;;;;;4.93;0.80;;;;;;;7.34;93.76;98863.72;10486829;28;20451;-77
2023/03/26 04:29:48;;;;;;;3.05;1.08;;;;;;;7.46;93.02;98853.72;10505134;28;20044;-77
2023/03/26 04:34:59;;;;;;;3.75;0.77;;;;;;;7.53;92.38;98852.59;10502998;28;20480;-76
2023/03/26 04:40:09;;;;;;;3.22;0.80;;;;;;;7.56;91.06;98860.31;10502629;28;20048;-76
2023/03/26 04:45:31;;;;;;;1.60;0.65;;;;;;;7.45;91.94;98865.09;10499881;28;20409;-76
2023/03/26 04:50:33;;;;;;;1.55;0.57;;;;;;;7.58;90.92;98855.88;10502446;28;20044;-77
2023/03/26 04:55:44;;;;;;;3.97;0.93;;;;;;;7.62;90.51;98851.41;10504540;28;20036;-76
2023/03/26 05:00:54;;;;;;;4.40;1.30;;;;;;;7.65;89.12;98848.63;10504604;28;20559;-77
2023/03/26 05:05:58;;;;;;;3.00;1.08;;;;;;;7.55;89.80;98856.84;10487178;28;20063;-77
2023/03/26 05:11:00;;;;;;;3.22;1.10;;;;;;;7.59;89.21;98853.19;10501352;28;20055;-77
2023/03/26 05:16:10;;;;;;;2.70;1.08;;;;;;;7.56;88.60;98853.31;10487565;28;20037;-77
2023/03/26 05:21:15;;;;;;;6.32;0.77;;;;;;;7.53;88.32;98853.44;10501773;28;20048;-72
2023/03/26 05:26:18;;;;;;;3.28;0.77;;;;;;;7.45;89.06;98858.09;10499444;28;20071;-72
2023/03/26 05:31:21;;;;;;;2.13;0.60;;;;;;;7.55;87.93;98862.06;10501062;28;20052;-77
2023/03/26 05:36:29;;;;;;;4.10;0.90;;;;;;;7.42;88.95;98866.06;10503162;28;20075;-77
2023/03/26 05:41:49;;;;;;;2.58;0.80;;;;;;;7.34;89.26;98861.09;10504359;28;20049;-77
2023/03/26 05:46:52;;;;;;;5.53;1.13;;;;;;;7.40;89.25;98867.03;10501250;28;20482;-75
2023/03/26 05:51:59;;;;;;;4.18;1.33;;;;;;;7.32;89.79;98868.16;10501157;28;20048;-75
2023/03/26 05:57:12;;;;;;;4.20;0.82;;;;;;;7.33;89.68;98874.25;10500937;28;20060;-75
2023/03/26 06:02:33;;;;;;;2.60;0.90;;;;;;;7.41;89.47;98876.59;10500639;28;20459;-75
2023/03/26 06:07:55;;;;;;;2.83;0.90;;;;;;;7.58;88.66;98872.44;10499940;28;20087;-74
2023/03/26 06:13:03;;;;;;;4.38;1.10;;;;;;;7.87;86.82;98873.03;10508565;28;20566;-74
2023/03/26 06:18:05;;;;;;;1.67;0.60;;;;;;;8.12;84.86;98866.84;10510483;28;20094;-76
2023/03/26 06:23:07;;;;;;;2.85;0.90;;;;;;;8.12;85.27;98864.22;10512171;28;20517;-75
2023/03/26 06:28:35;;;;;;;3.50;0.80;;;;;;;8.21;85.46;98856.84;10509687;28;20048;-74
2023/03/26 06:33:55;;;;;;;1.80;0.77;;;;;;;8.20;85.34;98864.78;10508699;28;20044;-74
2023/03/26 06:38:57;;;;;;;1.98;0.68;;;;;;;8.37;84.33;98857.13;10507897;28;20070;-75
2023/03/26 06:44:00;;;;;;;4.03;1.00;;;;;;;8.42;84.66;98857.78;10506976;28;20119;-74
2023/03/26 06:49:20;;;;;;;2.78;0.60;;;;;;;8.46;84.29;98851.50;10508863;28;20080;-76
2023/03/26 06:54:37;;;;;;;6.95;0.90;;;;;;;8.46;84.37;98855.88;10493120;28;20063;-75
2023/03/26 06:59:48;;;;;;;2.83;0.82;;;;;;;8.59;82.93;98864.94;10506380;28;20049;-75
2023/03/26 07:05:09;;;;;;;4.35;1.17;;;;;;;8.62;80.64;98861.31;10508521;28;20048;-75
2023/03/26 07:10:32;;;;;;;2.72;1.00;;;;;;;8.51;81.90;98862.63;10510824;28;20569;-76
2023/03/26 07:16:02;;;;;;;2.15;0.77;;;;;;;8.65;80.72;98863.81;10484966;28;20410;-76
2023/03/26 07:21:22;;;;;;;3.42;1.05;;;;;;;8.76;78.62;98864.19;10507611;28;20052;-75
2023/03/26 07:26:32;;;;;;;3.20;2.25;;;;;;;8.82;76.52;98858.69;10505352;28;20049;-75
2023/03/26 07:32:08;;;;;;;2.00;0.75;;;;;;;8.84;77.06;98856.84;10505210;28;20057;-76
2023/03/26 07:37:54;;;;;;;2.35;0.90;;;;;;;8.76;76.97;98854.56;10505019;28;20506;-75
2023/03/26 07:43:33;;;;;;;3.50;0.90;;;;;;;8.90;77.63;98860.97;10507955;28;20108;-76
2023/03/26 07:48:41;;;;;;;3.40;0.80;;;;;;;8.92;78.84;98852.13;10476032;28;20105;-76
2023/03/26 07:53:50;;;;;;;1.60;0.77;;;;;;;9.08;77.38;98849.69;10505847;28;20052;-75
2023/03/26 07:59:35;;;;;;;3.60;1.23;;;;;;;9.15;77.15;98845.88;10506717;28;20425;-76
2023/03/26 08:05:24;;;;;;;2.35;1.02;;;;;;;9.23;78.13;98850.78;10505328;28;20521;-75
2023/03/26 08:10:54;;;;;;;10.52;9.68;;;;;;;9.24;76.91;98849.84;10505825;28;20045;-75
2023/03/26 08:16:29;;;;;;;3.33;1.08;;;;;;;9.20;76.73;98838.63;10506292;28;20047;-76
2023/03/26 08:21:41;;;;;;;2.90;1.10;;;;;;;9.22;77.03;98839.44;10506440;28;20046;-77
2023/03/26 08:27:15;;;;;;;2.30;1.02;;;;;;;9.27;77.19;98855.81;10505117;28;20131;-76
2023/03/26 08:32:18;;;;;;;4.57;1.23;;;;;;;9.32;74.15;98843.31;10319189;28;20591;-77
2023/03/26 08:37:40;;;;;;;4.35;1.20;;;;;;;9.19;74.76;98841.34;10335213;28;20042;-75
2023/03/26 08:42:43;;;;;;;3.25;1.08;;;;;;;9.27;73.99;98839.22;10318814;28;20101;-77
2023/03/26 08:48:02;;;;;;;4.20;1.20;;;;;;;9.26;76.17;98837.53;10334719;28;20535;-76
2023/03/26 08:53:47;;;;;;;3.05;0.98;;;;;;;9.37;71.57;98837.03;10336042;28;20078;-72
2023/03/26 08:58:59;;;;;;;3.03;1.20;;;;;;;9.41;71.65;98830.72;10340774;28;20710;-76
2023/03/26 09:04:21;;;;;;;4.57;1.30;;;;;;;9.47;72.03;98827.81;10340311;28;20050;-77
2023/03/26 09:09:38;;;;;;;4.93;1.70;;;;;;;9.45;72.20;98817.41;10490852;28;20060;-78
2023/03/26 09:14:40;;;;;;;;;;;;;;;9.58;71.46;98817.66;10507714;28;20036;-77
2023/03/26 09:20:17;;;;;;;4.28;1.70;;;;;;;9.73;70.56;98816.09;10505108;28;19920;-77
2023/03/26 09:25:52;;;;;;;4.00;1.45;;;;;;;9.73;68.13;98813.47;10506914;28;20513;-78
2023/03/26 09:31:31;;;;;;;3.10;1.00;;;;;;;9.86;67.95;98801.44;10506388;28;20040;-77
2023/03/26 09:36:52;;;;;;;3.72;0.95;;;;;;;10.02;67.63;98794.53;10504774;28;20045;-77
2023/03/26 09:42:14;;;;;;;3.65;1.08;;;;;;;10.39;68.87;98784.84;10507552;28;20051;-78
2023/03/26 09:47:28;;;;;;;4.20;1.75;;;;;;;10.91;66.32;98783.94;10510409;28;20438;-78
2023/03/26 09:52:49;;;;;;;3.65;1.60;;;;;;;11.05;61.89;98784.03;10507271;28;20058;-79
2023/03/26 09:58:13;;;;;;;2.38;1.00;;;;;;;11.74;60.56;98772.34;10510595;28;20072;-78
2023/03/26 10:03:47;;;;;;;2.47;1.05;;;;;;;12.32;56.36;98776.91;10506615;28;20493;-78
2023/03/26 10:14:35;;;;;;;2.30;1.00;;;;;;;11.83;54.99;98769.22;10471719;28;20041;-72
2023/03/26 10:20:08;;;;;;;3.38;1.08;;;;;;;11.89;54.32;98746.97;10455843;28;20095;-71
2023/03/26 10:25:22;;;;;;;1.95;0.80;;;;;;;11.58;56.41;98744.25;10434347;28;20045;-72
2023/03/26 10:30:29;;;;;;;2.45;1.10;;;;;;;11.98;56.54;98736.72;10457641;28;20506;-73
2023/03/26 10:35:44;;;;;;;3.00;1.02;;;;;;;12.22;56.01;98731.84;10454835;28;20466;-71
2023/03/26 10:41:17;;;;;;;5.35;1.10;;;;;;;12.84;54.29;98707.88;10455680;28;20490;-73
2023/03/26 10:46:30;;;;;;;2.90;0.98;;;;;;;13.12;55.02;98701.72;10456168;28;20080;-73
2023/03/26 10:51:47;;;;;;;3.38;1.30;;;;;;;14.13;50.89;98690.69;10458227;28;20053;-73
2023/03/26 10:56:50;;;;;;;3.33;1.02;;;;;;;15.12;49.21;98685.53;10461202;28;20041;-71
2023/03/26 11:02:29;;;;;;;4.22;0.88;;;;;;;15.17;48.65;98671.97;10464047;28;20052;-71
2023/03/26 11:07:50;;;;;;;4.00;1.25;;;;;;;15.62;45.99;98665.13;10337224;28;20488;-71
2023/03/26 11:13:10;;;;;;;1.77;0.73;;;;;;;15.52;44.07;98665.91;10337542;28;20472;-70
2023/03/26 11:18:40;;;;;;;1.73;0.70;;;;;;;15.20;42.53;98661.19;10336641;28;20447;-71
2023/03/26 11:24:31;;;;;;;1.33;0.60;;;;;;;14.79;43.81;98656.22;10335405;28;20065;-70
2023/03/26 11:29:50;;;;;;;2.90;1.33;;;;;;;13.75;47.05;98650.13;10331793;28;20129;-73
2023/03/26 11:35:20;;;;;;;1.65;0.70;;;;;;;13.58;46.44;98652.09;10337193;28;20054;-72
2023/03/26 11:40:49;;;;;;;2.33;0.93;;;;;;;12.97;49.32;98640.22;10374458;28;20395;-71
2023/03/26 11:46:13;;;;;;;4.60;1.00;;;;;;;13.06;49.66;98631.72;10435877;28;20045;-72
2023/03/26 11:51:24;;;;;;;2.03;1.58;;;;;;;13.26;50.44;98621.69;10420660;28;20447;-72
2023/03/26 11:57:03;;;;;;;2.78;0.70;;;;;;;12.92;51.20;98618.53;10423175;28;20060;-74
2023/03/26 12:02:10;;;;;;;3.88;0.90;;;;;;;12.85;50.81;98619.91;10420366;28;20072;-71
2023/03/26 12:07:22;;;;;;;3.10;1.00;;;;;;;12.49;51.02;98626.53;10420067;28;20049;-71
2023/03/26 12:12:26;;;;;;;2.55;0.80;;;;;;;12.61;48.24;98625.75;10419239;28;20041;-70
2023/03/26 12:17:36;;;;;;;1.92;0.80;;;;;;;12.23;50.32;98612.34;10420131;28;20048;-71
2023/03/26 12:22:40;;;;;;;2.45;0.73;;;;;;;12.50;50.16;98617.69;10420088;28;20045;-72
2023/03/26 12:28:01;;;;;;;2.10;0.80;;;;;;;12.26;51.77;98604.25;10418952;28;20042;-71
2023/03/26 12:33:16;;;;;;;2.67;0.90;;;;;;;12.28;52.18;98605.00;10422576;28;20045;-71
2023/03/26 12:38:23;;;;;;;2.40;0.90;;;;;;;12.82;52.28;98591.91;10419089;28;20067;-72
2023/03/26 12:43:30;;;;;;;4.30;1.25;;;;;;;12.68;51.41;98594.59;10420736;28;20049;-70
2023/03/26 12:48:53;;;;;;;2.03;0.90;;;;;;;12.96;50.53;98603.38;10417774;28;20457;-71
2023/03/26 12:54:22;;;;;;;4.57;0.98;;;;;;;13.15;50.12;98596.00;10417638;28;20501;-72
2023/03/26 12:59:27;;;;;;;1.85;0.70;;;;;;;12.95;50.63;98597.25;10417724;28;20045;-71
2023/03/26 13:04:47;;;;;;;2.45;0.90;;;;;;;12.76;48.69;98586.22;10417311;28;20128;-70
2023/03/26 13:10:24;;;;;;;3.30;0.95;;;;;;;12.62;50.70;98585.28;10417737;28;20084;-71
2023/03/26 13:15:36;;;;;;;1.42;0.70;;;;;;;12.37;51.68;98574.59;10399587;28;20502;-71
2023/03/26 13:21:07;;;;;;;2.35;0.95;;;;;;;12.03;54.49;98573.19;10416678;28;20045;-72
2023/03/26 13:26:44;;;;;;;2.60;1.30;;;;;;;12.25;53.03;98567.44;10401666;28;20041;-71
2023/03/26 13:32:13;;;;;;;3.10;1.02;;;;;;;12.36;52.82;98567.63;10431318;28;20045;-71
2023/03/26 13:37:43;;;;;;;4.97;3.30;;;;;;;12.35;54.23;98564.16;10415468;28;20453;-71
2023/03/26 13:42:51;;;;;;;2.55;0.95;;;;;;;12.61;51.03;98562.50;10415785;28;20041;-71
2023/03/26 13:47:57;;;;;;;3.55;1.00;;;;;;;12.53;51.29;98553.41;10418172;28;20051;-71
2023/03/26 13:53:08;;;;;;;2.95;1.23;;;;;;;12.32;51.12;98548.53;10446308;28;20552;-72
2023/03/26 13:58:35;;;;;;;2.85;1.00;;;;;;;12.38;51.41;98550.78;10449747;28;20041;-71
2023/03/26 14:03:53;;;;;;;2.50;1.27;;;;;;;12.05;52.83;98556.34;10440083;28;20104;-71
2023/03/26 14:09:03;;;;;;;2.45;0.93;;;;;;;11.63;56.87;98555.31;10441321;28;20045;-71
2023/03/26 14:14:27;;;;;;;2.13;0.90;;;;;;;11.49;59.68;98559.72;10439609;28;20067;-71
2023/03/26 14:19:54;;;;;;;2.05;0.88;;;;;;;11.28;58.70;98567.91;10441278;28;20048;-72
2023/03/26 14:25:23;;;;;;;2.20;0.75;;;;;;;10.71;62.64;98574.69;10456328;28;20040;-71
2023/03/26 14:30:53;;;;;;;1.75;0.68;;;;;;;10.38;66.69;98578.25;10462801;28;20041;-71
2023/03/26 14:36:33;;;;;;;3.15;0.93;;;;;;;10.32;68.82;98565.47;10446819;28;20033;-71
2023/03/26 14:41:52;;;;;;;4.10;1.38;;;;;;;10.09;71.71;98557.03;10446976;28;20064;-71
2023/03/26 14:47:16;;;;;;;2.85;0.95;;;;;;;9.88;73.61;98565.19;10446606;28;20106;-71
2023/03/26 14:52:50;;;;;;;2.47;0.70;;;;;;;9.79;71.65;98561.25;10466451;28;20124;-71
2023/03/26 14:58:14;;;;;;;2.67;0.70;;;;;;;9.63;70.70;98566.44;10463976;28;20380;-71
2023/03/26 15:03:24;;;;;;;2.30;0.60;;;;;;;9.52;70.16;98561.75;10463844;28;20125;-71
2023/03/26 15:08:47;;;;;;;4.38;0.88;;;;;;;9.31;72.87;98550.56;10445890;28;20421;-71
2023/03/26 15:14:30;;;;;;;1.90;0.40;;;;;;;9.04;73.62;98547.53;10464503;28;20495;-72
2023/03/26 15:19:35;;;;;;;1.05;0.45;;;;;;;8.74;76.90;98547.25;10463349;28;20137;-72
2023/03/26 15:24:57;;;;;;;1.83;0.73;;;;;;;8.79;77.30;98536.56;10463681;28;20048;-71
2023/03/26 15:30:28;;;;;;;1.10;0.70;;;;;;;8.58;80.62;98539.25;10462924;28;20479;-70
2023/03/26 15:35:32;;;;;;;1.33;0.70;;;;;;;8.34;83.64;98541.25;10465580;28;20064;-70
2023/03/26 15:40:43;;;;;;;2.08;0.70;;;;;;;8.18;85.20;98544.63;10461850;28;20541;-72
2023/03/26 15:46:15;;;;;;;1.58;0.73;;;;;;;8.04;86.94;98548.72;10444118;28;20108;-71
2023/03/26 15:51:45;;;;;;;3.00;0.70;;;;;;;8.12;86.49;98548.38;10430536;28;20061;-71
2023/03/26 15:57:19;;;;;;;1.77;0.80;;;;;;;8.06;88.18;98548.69;10462572;28;20045;-71
2023/03/26 16:02:28;;;;;;;2.25;0.90;;;;;;;8.02;90.48;98547.13;10460825;28;20410;-71
2023/03/26 16:07:49;;;;;;;2.58;0.85;;;;;;;7.91;93.54;98541.50;10461252;28;20094;-71
2023/03/26 16:13:33;;;;;;;2.25;0.77;;;;;;;7.92;95.47;98544.03;10480656;22;20132;-76
2023/03/26 16:18:59;;;;;;;1.88;1.08;;;;;;;7.97;95.63;98549.94;10468997;28;20084;-76
2023/03/26 16:24:01;;;;;;;2.17;1.38;;;;;;;7.92;98.36;98546.66;10442702;28;20464;-75
2023/03/26 16:29:15;;;;;;;2.08;1.05;;;;;;;7.86;99.19;98552.16;10471093;28;20044;-75
2023/03/26 16:34:25;;;;;;;2.00;1.20;;;;;;;7.80;100.00;98547.22;10453779;28;20049;-75
2023/03/26 16:39:37;;;;;;;2.25;1.00;;;;;;;7.90;100.00;98551.13;10469731;28;20041;-74
2023/03/26 16:44:46;;;;;;;3.63;1.52;;;;;;;7.90;100.00;98550.28;10469386;28;20080;-76
2023/03/26 16:49:53;;;;;;;3.20;1.65;;;;;;;7.84;100.00;98548.78;10463657;28;20049;-74
2023/03/26 16:55:18;;;;;;;3.30;1.55;;;;;;;7.88;100.00;98554.72;10464228;28;20064;-74
2023/03/26 17:00:48;;;;;;;4.75;2.47;;;;;;;7.80;100.00;98557.69;10466590;28;20095;-75
2023/03/26 17:05:56;;;;;;;4.05;1.90;;;;;;;7.95;100.00;98556.16;10447427;28;20037;-73
2023/03/26 17:11:19;;;;;;;2.95;1.52;;;;;;;7.79;100.00;98555.97;10482951;28;20482;-74
2023/03/26 17:16:28;;;;;;;2.47;1.20;;;;;;;7.83;100.00;98560.16;10505541;28;20040;-75
2023/03/26 17:22:02;;;;;;;2.10;1.33;;;;;;;7.73;100.00;98566.72;10507483;28;20045;-75
2023/03/26 17:27:08;;;;;;;1.73;0.93;;;;;;;7.71;100.00;98564.16;10473876;28;20075;-76
2023/03/26 17:32:13;;;;;;;1.88;1.10;;;;;;;7.65;100.00;98566.19;10462039;28;20045;-75
2023/03/26 17:37:15;;;;;;;1.40;1.02;;;;;;;7.74;100.00;98566.63;10422803;28;20065;-73
2023/03/26 17:42:37;;;;;;;2.03;0.90;;;;;;;7.61;100.00;98568.06;10421031;28;20049;-75
2023/03/26 17:48:04;;;;;;;3.28;1.40;;;;;;;7.73;100.00;98574.56;10428127;28;20044;-74
2023/03/26 17:53:22;;;;;;;2.70;1.70;;;;;;;7.59;100.00;98576.00;10439426;28;20099;-74
2023/03/26 17:58:34;;;;;;;2.10;1.85;;;;;;;7.62;100.00;98579.41;10469943;28;20041;-76
2023/03/26 18:03:48;;;;;;;2.70;1.60;;;;;;;7.67;100.00;98586.13;10469136;28;20325;-75
2023/03/26 18:09:09;;;;;;;2.40;1.83;;;;;;;7.34;100.00;98584.03;10470213;28;20037;-77
2023/03/26 18:14:30;;;;;;;2.13;1.83;;;;;;;7.44;100.00;98589.75;10469891;28;20040;-74
2023/03/26 18:19:51;;;;;;;2.50;1.50;;;;;;;7.43;100.00;98590.63;10464227;28;20045;-75
2023/03/26 18:24:58;;;;;;;2.45;1.65;;;;;;;7.30;100.00;98594.66;10461943;28;20037;-74
2023/03/26 18:30:12;;;;;;;2.40;1.98;;;;;;;7.07;100.00;98590.38;10459143;28;20048;-75
2023/03/26 18:35:20;;;;;;;1.85;1.58;;;;;;;7.35;100.00;98590.13;10460322;28;20044;-75
2023/03/26 18:40:23;;;;;;;3.35;1.65;;;;;;;7.27;100.00;98582.59;10459893;28;20048;-74
2023/03/26 18:45:32;;;;;;;2.55;1.40;;;;;;;7.46;100.00;98582.66;10458390;28;20045;-76
2023/03/26 18:50:37;;;;;;;2.80;1.80;;;;;;;7.04;100.00;98577.47;10459963;28;20593;-75
2023/03/26 18:55:39;;;;;;;2.80;1.67;;;;;;;6.91;100.00;98584.09;10461649;28;20041;-75
2023/03/26 19:00:43;;;;;;;2.35;1.50;;;;;;;7.08;100.00;98579.91;10459512;28;20072;-75
2023/03/26 19:05:45;;;;;;;3.25;1.67;;;;;;;7.27;100.00;98571.28;10460317;28;20136;-75
2023/03/26 19:10:49;;;;;;;3.03;1.80;;;;;;;7.13;100.00;98565.75;10459550;28;20053;-74
2023/03/26 19:15:53;;;;;;;1.50;1.40;;;;;;;7.04;100.00;98567.03;10461827;28;20045;-74
2023/03/26 19:21:01;;;;;;;2.22;1.60;;;;;;;7.05;100.00;98553.88;10467364;28;20132;-74
2023/03/26 19:26:09;;;;;;;2.15;1.48;;;;;;;7.14;100.00;98557.03;10467284;28;20036;-73
2023/03/26 19:31:13;;;;;;;1.63;1.13;;;;;;;7.15;100.00;98553.50;10465568;28;20503;-74
2023/03/26 19:36:19;;;;;;;2.88;1.90;;;;;;;7.17;100.00;98547.31;10451189;28;20043;-74
2023/03/26 19:41:29;;;;;;;2.08;1.23;;;;;;;7.02;100.00;98546.16;10466061;28;20053;-74
2023/03/26 19:46:33;;;;;;;2.03;1.20;;;;;;;7.08;100.00;98534.59;10467264;28;20067;-76
2023/03/26 19:52:13;;;;;;;3.33;1.40;;;;;;;7.04;100.00;98528.69;10467335;28;20552;-75
2023/03/26 19:57:15;;;;;;;1.92;1.20;;;;;;;7.15;100.00;98522.16;10467158;28;20393;-74
2023/03/26 20:02:18;;;;;;;2.17;1.33;;;;;;;7.08;100.00;98532.88;10466503;28;20040;-76
2023/03/26 20:07:25;;;;;;;1.25;0.90;;;;;;;7.01;100.00;98522.72;10424177;28;20076;-75
2023/03/26 20:12:37;;;;;;;3.30;1.50;;;;;;;6.98;100.00;98508.00;10423245;28;20055;-76
2023/03/26 20:17:41;;;;;;;2.78;1.63;;;;;;;7.00;100.00;98500.97;10424813;28;20112;-74
2023/03/26 20:22:45;;;;;;;1.77;1.20;;;;;;;7.10;100.00;98504.03;10422660;28;20073;-74
2023/03/26 20:27:47;;;;;;;2.25;1.52;;;;;;;7.16;100.00;98490.72;10406135;28;20120;-73
2023/03/26 20:32:49;;;;;;;2.75;1.70;;;;;;;7.03;100.00;98487.75;10425016;28;20048;-75
2023/03/26 20:38:11;;;;;;;3.67;2.28;;;;;;;7.19;100.00;98492.34;10424404;28;20124;-74
2023/03/26 20:43:17;;;;;;;3.95;3.40;;;;;;;7.15;100.00;98490.78;10422011;28;20396;-76
2023/03/26 20:48:19;;;;;;;4.05;3.72;;;;;;;7.16;100.00;98488.09;10405318;28;20095;-74
2023/03/26 20:53:24;;;;;;;3.45;2.90;;;;;;;7.04;100.00;98483.41;10432202;28;20037;-76
2023/03/26 20:58:27;;;;;;;3.08;2.55;;;;;;;6.98;100.00;98481.03;10464488;28;20037;-75
2023/03/26 21:03:32;;;;;;;3.42;2.03;;;;;;;7.04;100.00;98488.63;10464493;28;20049;-74
2023/03/26 21:08:34;;;;;;;2.13;1.73;;;;;;;6.92;100.00;98487.38;10461146;28;20141;-73
2023/03/26 21:13:43;;;;;;;2.80;1.83;;;;;;;6.99;100.00;98477.50;10462691;28;20399;-74
2023/03/26 21:18:45;;;;;;;2.45;1.98;;;;;;;6.91;100.00;98471.78;10461957;28;20044;-74
2023/03/26 21:24:18;;;;;;;3.65;2.53;;;;;;;6.93;100.00;98483.84;10462558;28;20495;-74
2023/03/26 21:29:20;;;;;;;4.85;4.40;;;;;;;6.81;100.00;98473.91;10459798;28;20043;-74
2023/03/26 21:34:22;;;;;;;4.95;4.45;;;;;;;6.80;100.00;98485.25;10462231;28;20051;-74
2023/03/26 21:39:24;;;;;;;4.28;3.88;;;;;;;6.79;100.00;98494.03;10459105;28;20041;-73
2023/03/26 21:44:26;;;;;;;3.97;3.38;;;;;;;6.80;100.00;98509.63;10458472;28;20051;-73
2023/03/26 21:49:28;;;;;;;2.72;2.20;;;;;;;6.60;100.00;98506.09;10459377;28;20052;-74
2023/03/26 21:54:31;;;;;;;2.63;2.35;;;;;;;6.47;100.00;98509.22;10460265;28;20045;-73
2023/03/26 21:59:55;;;;;;;2.72;2.40;;;;;;;6.76;100.00;98525.47;10457761;28;20047;-73
2023/03/26 22:05:07;;;;;;;3.53;2.80;;;;;;;6.97;100.00;98528.97;10457501;28;20145;-74
2023/03/26 22:10:08;;;;;;;3.35;2.38;;;;;;;6.97;100.00;98537.66;10459413;28;20047;-74
2023/03/26 22:15:12;;;;;;;3.25;2.95;;;;;;;6.71;100.00;98528.28;10459577;28;20064;-74
2023/03/26 22:20:14;;;;;;;3.05;2.75;;;;;;;6.62;100.00;98514.75;10471663;22;20049;-70
2023/03/26 22:25:17;;;;;;;3.60;2.30;;;;;;;6.70;100.00;98525.72;10455963;28;20498;-70
2023/03/26 22:30:19;;;;;;;3.05;2.58;;;;;;;6.65;100.00;98533.75;10438871;28;20051;-69
2023/03/26 22:35:21;;;;;;;2.25;1.90;;;;;;;6.74;100.00;98527.31;10456176;28;20110;-69
2023/03/26 22:40:23;;;;;;;2.10;1.70;;;;;;;6.58;100.00;98533.13;10438591;28;20422;-69
2023/03/26 22:45:26;;;;;;;2.30;1.63;;;;;;;6.53;100.00;98534.22;10456739;28;20045;-69
2023/03/26 22:50:28;;;;;;;2.33;1.58;;;;;;;6.46;100.00;98530.16;10456964;28;20045;-69
2023/03/26 22:55:30;;;;;;;2.30;1.90;;;;;;;6.47;100.00;98527.50;10463523;28;20049;-69
2023/03/26 23:00:31;;;;;;;2.20;2.00;;;;;;;6.37;100.00;98535.72;10464275;28;20449;-69
2023/03/26 23:05:33;;;;;;;2.45;1.90;;;;;;;6.37;100.00;98531.34;10464016;28;20053;-69
2023/03/26 23:10:35;;;;;;;3.15;2.88;;;;;;;6.43;100.00;98535.50;10462995;28;20045;-69
2023/03/26 23:15:39;;;;;;;3.35;3.15;;;;;;;6.45;100.00;98542.34;10463114;28;20107;-69
2023/03/26 23:20:41;;;;;;;4.63;4.22;;;;;;;6.35;100.00;98537.56;10463782;28;20087;-69
2023/03/26 23:25:44;;;;;;;4.82;4.43;;;;;;;6.35;100.00;98541.00;10462353;28;20041;-69
2023/03/26 23:30:52;;;;;;;3.92;3.63;;;;;;;6.34;100.00;98544.53;10461911;28;20517;-69
2023/03/26 23:35:56;;;;;;;3.85;3.55;;;;;;;6.22;100.00;98558.06;10461827;28;20037;-69
2023/03/26 23:40:58;;;;;;;6.22;2.95;;;;;;;6.18;100.00;98553.84;10462570;28;20048;-69
2023/03/26 23:46:00;;;;;;;2.60;2.25;;;;;;;6.46;100.00;98559.75;10461909;28;20040;-69
2023/03/26 23:51:03;;;;;;;2.28;2.00;;;;;;;6.42;100.00;98562.50;10461651;28;20052;-69
2023/03/26 23:56:05;;;;;;;2.47;2.28;;;;;;;6.26;100.00;98562.25;10460911;28;20037;-69
